Quick Links (Output Below):   Max & Min Temps   /   Climate Reports   /   Zone Forecasts
River Forecasts   /   Forestry Forecasts   /   Aviation Forecasts   /   Radars   /   Features

Terminal Aerodrome Forecast (Little Rock)

Pick a Site:
Arkadelphia | El Dorado | Fayetteville | Fort Smith | Harrison | Highfill | Hot Springs | Jonesboro
Little Rock | Monticello | Mountain Home | Pine Bluff | Texarkana
 Forecast 

KLIT 021531Z 0216/0312 22008KT P6SM VCTS BKN020 BKN050CB
      TEMPO 0216/0217 VRB15G25KT 5SM -SHRA OVC015
     FM021700 19008KT P6SM VCTS BKN025 OVC050CB
     FM021900 22010KT P6SM BKN050 BKN120
     FM030100 19006KT P6SM SCT120 BKN250
     FM030800 20006KT 5SM BR SCT015 BKN250=


 Latest METARs (Observations) 
How to Decode METARs
NO CURRENT OBSERVATIONS

***** Today's Observations (Above) *****


17Z KLIT 021653Z 32009KT 10SM -RA FEW015 BKN028 OVC100 26/21 A3007 RMK
         AO2 RAB24 SLP180 VCSH N P0000 T02560211
         
16Z KLIT 021553Z 22007KT 10SM SCT015 BKN028 OVC100 28/23 A3004 RMK AO2
         SLP173 BINOVC T02830228
         
15Z KLIT 021453Z 21007KT 10SM BKN013 BKN035 BKN250 28/23 A3004 RMK AO2
         SLP172 BKN013 V SCT 60000 T02780233 53007
         
14Z KLIT 021353Z VRB04KT 7SM BKN009 OVC025 26/23 A3003 RMK AO2 SLP169
         CIG RGD HIR CLDS VSB T02610233
         
13Z KLIT 021253Z 17007KT 7SM FEW007 BKN015 BKN250 26/23 A3002 RMK AO2
         RAB00E11 SLP165 P0000 T02560233
         
12Z KLIT 021153Z 15005KT 10SM OVC013 26/23 A3002 RMK AO2 SLP165
         T02560228 10256 20250 53019
         
11Z KLIT 021053Z 11003KT 10SM OVC014 26/23 A3000 RMK AO2 SLP157
         T02560228
         
10Z KLIT 020953Z 16004KT 10SM OVC011 26/23 A2998 RMK AO2 SLP150
         T02560228
         
09Z KLIT 020853Z 19003KT 10SM BKN010 25/23 A2996 RMK AO2 SLP145
         T02500228 53001
         
08Z KLIT 020753Z 17005KT 10SM SCT200 25/23 A2993 RMK AO2 SLP134
         T02500228
         
***** Yesterday's Observations (Above) *****


Back to Main Page
http://www.srh.noaa.gov/lzk/qfcst.php

USA.gov is the U.S. government's official web portal to all federal, state and local government web resources and services.